createdAt,value
2022-08-27T00:00:58.711Z,39.66
2022-08-27T00:03:30.925Z,39.87
2022-08-27T00:06:03.417Z,39.69
2022-08-27T00:08:35.644Z,40.05
2022-08-27T00:11:08.072Z,39.92
2022-08-27T00:13:41.564Z,39.94
2022-08-27T00:16:16.139Z,40.02
2022-08-27T00:18:49.752Z,40.08
2022-08-27T00:21:21.943Z,40.24
2022-08-27T00:23:54.411Z,40.26
2022-08-27T00:26:26.848Z,40.31
2022-08-27T00:28:59.136Z,40.24
2022-08-27T00:31:31.367Z,40.28
2022-08-27T00:34:03.581Z,40.38
2022-08-27T00:36:35.748Z,40.56
2022-08-27T00:39:07.956Z,40.81
2022-08-27T00:41:41.961Z,40.91
2022-08-27T00:44:14.789Z,40.98
2022-08-27T00:46:50.658Z,41.13
2022-08-27T00:49:27.986Z,41.11
2022-08-27T00:52:05.536Z,41.14
2022-08-27T00:54:38.024Z,41.25
2022-08-27T00:57:10.508Z,41.35
2022-08-27T00:59:43.487Z,41.67
2022-08-27T01:02:21.630Z,41.88
2022-08-27T01:04:57.582Z,41.88
2022-08-27T01:07:33.215Z,42.08
2022-08-27T01:10:08.446Z,42.08
2022-08-27T01:12:41.107Z,41.96
2022-08-27T01:15:20.207Z,42.23
2022-08-27T01:17:53.415Z,42.27
2022-08-27T01:20:30.663Z,42.38
2022-08-27T01:23:11.415Z,42.15
2022-08-27T01:25:46.001Z,42.41
2022-08-27T01:28:21.794Z,42.47
2022-08-27T01:30:56.068Z,42.41
2022-08-27T01:33:28.196Z,42.22
2022-08-27T01:36:00.667Z,42.43
2022-08-27T01:38:33.646Z,42.49
2022-08-27T01:41:06.661Z,42.25
2022-08-27T01:43:38.856Z,42.23
2022-08-27T01:46:11.074Z,42.51
2022-08-27T01:48:43.359Z,42.41
2022-08-27T01:51:15.561Z,42.48
2022-08-27T01:53:48.131Z,42.58
2022-08-27T01:56:20.295Z,42.86
2022-08-27T01:58:52.472Z,42.67
2022-08-27T02:01:24.771Z,43.05
2022-08-27T02:03:57.000Z,43.10
2022-08-27T02:06:29.158Z,43.33
2022-08-27T02:09:01.354Z,43.21
2022-08-27T02:11:33.518Z,43.44
2022-08-27T02:14:16.042Z,43.45
2022-08-27T02:16:52.648Z,43.44
2022-08-27T02:19:25.559Z,43.54
2022-08-27T02:22:00.552Z,43.53
2022-08-27T02:24:32.815Z,43.51
2022-08-27T02:27:05.048Z,43.44
2022-08-27T02:29:37.357Z,43.56
2022-08-27T02:32:22.503Z,43.47
2022-08-27T02:35:04.631Z,43.77
2022-08-27T02:37:37.623Z,43.58
2022-08-27T02:40:17.221Z,43.74
2022-08-27T02:42:49.963Z,44.12
2022-08-27T02:45:23.651Z,44.13
2022-08-27T02:47:55.873Z,44.06
2022-08-27T02:50:28.082Z,44.27
2022-08-27T02:53:01.353Z,44.48
2022-08-27T02:55:34.386Z,44.05
2022-08-27T02:58:09.612Z,44.23
2022-08-27T03:00:42.308Z,44.33
2022-08-27T03:03:14.608Z,44.25
2022-08-27T03:05:46.959Z,44.04
2022-08-27T03:08:19.211Z,43.92
2022-08-27T03:10:51.862Z,44.03
2022-08-27T03:13:26.016Z,44.23
2022-08-27T03:15:58.213Z,44.26
2022-08-27T03:18:32.428Z,44.12
2022-08-27T03:21:04.647Z,44.28
2022-08-27T03:23:37.188Z,44.15
2022-08-27T03:26:13.561Z,44.24
2022-08-27T03:28:46.895Z,44.36
2022-08-27T03:31:27.340Z,44.27
2022-08-27T03:34:01.810Z,44.42
2022-08-27T03:36:34.087Z,44.66
2022-08-27T03:39:06.776Z,44.72
2022-08-27T03:41:43.469Z,44.78
2022-08-27T03:44:27.428Z,44.89
2022-08-27T03:47:00.148Z,45.02
2022-08-27T03:49:32.855Z,45.08
2022-08-27T03:52:05.696Z,45.33
2022-08-27T03:54:39.235Z,45.24
2022-08-27T03:57:11.466Z,45.43
2022-08-27T03:59:43.667Z,45.58
2022-08-27T04:02:16.459Z,45.59
2022-08-27T04:04:48.654Z,45.49
2022-08-27T04:07:21.749Z,45.62
2022-08-27T04:09:54.056Z,45.87
2022-08-27T04:12:27.112Z,45.77
2022-08-27T04:14:59.293Z,45.72
2022-08-27T04:17:31.511Z,45.74
2022-08-27T04:20:24.880Z,45.94
2022-08-27T04:22:56.657Z,45.82
2022-08-27T04:25:28.808Z,45.73
2022-08-27T04:28:00.982Z,45.71
2022-08-27T04:30:33.278Z,45.45
2022-08-27T04:33:05.599Z,45.38
2022-08-27T04:35:37.922Z,45.67
2022-08-27T04:38:10.520Z,45.52
2022-08-27T04:41:00.259Z,45.62
2022-08-27T04:43:32.598Z,45.58
2022-08-27T04:46:04.873Z,45.61
2022-08-27T04:48:38.469Z,45.53
2022-08-27T04:51:11.953Z,45.62
2022-08-27T04:53:46.840Z,45.86
2022-08-27T04:56:21.840Z,45.61
2022-08-27T04:58:54.638Z,45.67
2022-08-27T05:01:29.881Z,45.62
2022-08-27T05:04:02.227Z,45.51
2022-08-27T05:06:34.732Z,45.71
2022-08-27T05:09:07.651Z,45.54
2022-08-27T05:11:40.041Z,45.67
2022-08-27T05:14:14.648Z,45.59
2022-08-27T05:16:47.526Z,45.88
2022-08-27T05:19:19.784Z,45.39
2022-08-27T05:21:53.974Z,45.48
2022-08-27T05:24:26.237Z,45.60
2022-08-27T05:26:58.385Z,45.70
2022-08-27T05:29:31.854Z,45.41
2022-08-27T05:32:04.224Z,45.63
2022-08-27T05:34:36.655Z,45.61
2022-08-27T05:37:09.173Z,45.77
2022-08-27T05:39:41.439Z,45.68
2022-08-27T05:42:13.749Z,45.99
2022-08-27T05:44:46.393Z,45.76
2022-08-27T05:47:18.587Z,45.86
2022-08-27T05:49:52.615Z,45.72
2022-08-27T05:52:24.759Z,45.71
2022-08-27T05:54:57.424Z,45.61
2022-08-27T05:57:29.689Z,45.68
2022-08-27T06:00:19.231Z,45.65
2022-08-27T06:02:51.650Z,45.66
2022-08-27T06:05:24.173Z,45.49
2022-08-27T06:07:56.352Z,45.36
2022-08-27T06:10:28.536Z,45.16
2022-08-27T06:13:00.747Z,44.98
2022-08-27T06:15:33.206Z,44.80
2022-08-27T06:18:05.552Z,44.76
2022-08-27T06:20:37.737Z,44.70
2022-08-27T06:23:10.263Z,44.49
2022-08-27T06:25:44.428Z,44.67
2022-08-27T06:28:16.682Z,44.52
2022-08-27T06:30:48.980Z,44.46
2022-08-27T06:33:21.414Z,44.38
2022-08-27T06:35:53.856Z,44.30
2022-08-27T06:38:26.884Z,44.12
2022-08-27T06:40:59.088Z,44.05
2022-08-27T06:43:31.220Z,43.96
2022-08-27T06:46:07.340Z,43.98
2022-08-27T06:48:40.124Z,43.91
2022-08-27T06:51:13.778Z,43.63
2022-08-27T06:53:47.358Z,43.23
2022-08-27T06:56:22.021Z,43.18
2022-08-27T06:58:58.144Z,42.77
2022-08-27T07:01:32.523Z,42.54
2022-08-27T07:04:07.845Z,42.45
2022-08-27T07:06:41.412Z,41.96
2022-08-27T07:09:14.406Z,41.93
2022-08-27T07:11:46.747Z,41.54
2022-08-27T07:14:20.631Z,40.92
2022-08-27T07:16:52.813Z,40.70
2022-08-27T07:19:25.359Z,40.45
2022-08-27T07:21:57.605Z,40.13
2022-08-27T07:24:29.739Z,39.29
2022-08-27T07:27:01.892Z,38.94
2022-08-27T07:29:34.190Z,38.51
2022-08-27T07:32:06.889Z,37.95
2022-08-27T07:34:39.096Z,37.85
2022-08-27T07:37:11.287Z,37.32
2022-08-27T07:39:43.518Z,37.16
2022-08-27T07:42:33.076Z,36.84
2022-08-27T07:45:05.620Z,36.63
2022-08-27T07:47:38.483Z,36.11
2022-08-27T07:50:11.729Z,35.77
2022-08-27T07:52:44.939Z,35.63
2022-08-27T07:55:17.776Z,35.30
2022-08-27T07:57:50.220Z,35.17
2022-08-27T08:00:22.693Z,34.78
2022-08-27T08:02:54.931Z,34.11
2022-08-27T08:05:27.196Z,33.84
2022-08-27T08:07:59.312Z,33.50
2022-08-27T08:10:35.382Z,33.24
2022-08-27T08:13:08.215Z,33.08
2022-08-27T08:15:40.399Z,32.52
2022-08-27T08:18:12.657Z,32.02
2022-08-27T08:20:57.690Z,31.71
2022-08-27T08:23:32.539Z,31.07
2022-08-27T08:26:05.220Z,30.51
2022-08-27T08:28:37.851Z,29.73
2022-08-27T08:31:10.306Z,29.27
2022-08-27T08:33:42.587Z,29.30
2022-08-27T08:36:16.761Z,28.94
2022-08-27T08:38:51.055Z,28.77
2022-08-27T08:41:39.871Z,28.19
2022-08-27T08:44:26.716Z,27.83
2022-08-27T08:47:04.412Z,27.46
2022-08-27T08:49:50.834Z,27.18
2022-08-27T08:52:40.292Z,27.45
2022-08-27T08:55:28.218Z,26.93
2022-08-27T08:58:14.215Z,26.89
2022-08-27T09:00:50.021Z,26.86
2022-08-27T09:03:22.407Z,26.77
2022-08-27T09:06:02.709Z,26.89
2022-08-27T09:08:41.172Z,26.47
2022-08-27T09:11:25.422Z,26.62
2022-08-27T09:14:01.111Z,26.41
2022-08-27T09:16:33.503Z,25.89
2022-08-27T09:19:07.569Z,26.02
2022-08-27T09:21:55.437Z,25.64
2022-08-27T09:24:38.456Z,25.60
2022-08-27T09:27:14.843Z,25.50
2022-08-27T09:29:53.264Z,25.27
2022-08-27T09:32:28.472Z,25.16
2022-08-27T09:35:04.343Z,24.81
2022-08-27T09:37:44.401Z,25.02
2022-08-27T09:40:27.304Z,24.72
2022-08-27T09:43:07.472Z,24.67
2022-08-27T09:45:47.854Z,24.19
2022-08-27T09:48:23.482Z,24.10
2022-08-27T09:50:58.258Z,23.99
2022-08-27T09:53:35.351Z,24.11
2022-08-27T09:56:11.154Z,24.12
2022-08-27T09:58:56.634Z,23.80
2022-08-27T10:01:31.186Z,23.78
2022-08-27T10:04:13.619Z,23.67
2022-08-27T10:06:51.239Z,23.79
2022-08-27T10:09:30.053Z,23.63
2022-08-27T10:12:06.836Z,23.77
2022-08-27T10:14:43.967Z,23.39
2022-08-27T10:17:24.327Z,23.36
2022-08-27T10:20:04.509Z,23.07
2022-08-27T10:22:47.192Z,22.97
2022-08-27T10:25:29.843Z,23.06
2022-08-27T10:28:12.316Z,22.74
2022-08-27T10:30:59.597Z,22.52
2022-08-27T10:33:41.523Z,22.68
2022-08-27T10:36:26.775Z,22.56
2022-08-27T10:39:07.747Z,22.37
2022-08-27T10:41:47.116Z,22.13
2022-08-27T10:44:44.091Z,22.12
2022-08-27T10:47:31.948Z,21.98
2022-08-27T10:50:08.049Z,21.85
2022-08-27T10:52:45.124Z,21.84
2022-08-27T10:55:24.048Z,21.69
2022-08-27T10:58:13.406Z,21.36
2022-08-27T11:00:56.367Z,21.60
2022-08-27T11:03:35.539Z,21.38
2022-08-27T11:06:15.788Z,21.34
2022-08-27T11:08:52.115Z,21.42
2022-08-27T11:14:34.314Z,21.37
2022-08-27T11:17:12.225Z,21.44
2022-08-27T11:19:54.349Z,21.31
2022-08-27T11:22:32.222Z,21.55
2022-08-27T11:25:10.828Z,21.22
2022-08-27T11:27:44.308Z,21.60
2022-08-27T11:30:29.896Z,21.56
2022-08-27T11:33:14.299Z,21.81
2022-08-27T11:35:59.101Z,21.56
2022-08-27T11:38:51.559Z,22.03
2022-08-27T11:41:49.110Z,22.10
2022-08-27T11:44:23.655Z,22.05
2022-08-27T11:46:56.552Z,22.16
2022-08-27T11:49:36.193Z,21.90
2022-08-27T11:52:10.674Z,21.97
2022-08-27T11:54:51.053Z,22.23
2022-08-27T11:57:33.047Z,22.09
2022-08-27T12:00:21.659Z,22.27
2022-08-27T12:03:06.347Z,22.45
2022-08-27T12:05:42.532Z,22.49
2022-08-27T12:08:34.869Z,22.64
2022-08-27T12:11:19.040Z,22.50
2022-08-27T12:14:01.932Z,22.75
2022-08-27T12:16:42.217Z,22.79
2022-08-27T12:19:29.575Z,22.62
2022-08-27T12:22:16.500Z,22.80
2022-08-27T12:24:55.582Z,22.78
2022-08-27T12:27:36.006Z,22.80
2022-08-27T12:30:22.112Z,22.96
2022-08-27T12:32:54.997Z,23.06
2022-08-27T12:35:41.963Z,22.94
2022-08-27T12:38:19.924Z,22.97
2022-08-27T12:40:55.151Z,23.15
2022-08-27T12:43:29.798Z,23.15
2022-08-27T12:46:06.648Z,23.12
2022-08-27T12:48:43.242Z,23.21
2022-08-27T12:51:20.645Z,23.40
2022-08-27T12:53:59.619Z,23.24
2022-08-27T12:56:45.661Z,23.36
2022-08-27T12:59:39.561Z,23.23
2022-08-27T13:02:30.043Z,23.44
2022-08-27T13:05:10.347Z,23.48
2022-08-27T13:07:46.578Z,23.50
2022-08-27T13:10:22.239Z,23.60
2022-08-27T13:13:06.256Z,23.63
2022-08-27T13:15:43.133Z,23.72
2022-08-27T13:18:16.208Z,23.78
2022-08-27T13:20:53.102Z,23.86
2022-08-27T13:23:28.140Z,23.84
2022-08-27T13:26:06.138Z,23.86
2022-08-27T13:28:42.363Z,23.94
2022-08-27T13:31:15.701Z,24.02
2022-08-27T13:33:48.539Z,23.92
2022-08-27T13:36:32.090Z,23.96
2022-08-27T13:39:07.126Z,23.95
2022-08-27T13:41:41.034Z,23.93
2022-08-27T13:44:16.751Z,24.15
2022-08-27T13:46:51.826Z,24.04
2022-08-27T13:49:27.074Z,24.13
2022-08-27T13:52:08.460Z,24.21
2022-08-27T13:54:40.700Z,24.16
2022-08-27T13:57:23.826Z,24.18
2022-08-27T13:59:56.259Z,24.32
2022-08-27T14:02:33.358Z,24.40
2022-08-27T14:05:13.862Z,24.38
2022-08-27T14:07:48.714Z,24.47
2022-08-27T14:10:32.658Z,24.43
2022-08-27T14:13:07.290Z,24.38
2022-08-27T14:15:42.404Z,24.40
2022-08-27T14:18:48.015Z,24.33
2022-08-27T14:21:19.191Z,24.44
2022-08-27T14:23:51.679Z,24.49
2022-08-27T14:26:23.947Z,24.52
2022-08-27T14:28:57.138Z,24.45
2022-08-27T14:31:30.083Z,24.55
2022-08-27T14:34:02.600Z,24.53
2022-08-27T14:36:38.668Z,24.53
2022-08-27T14:39:11.911Z,24.59
2022-08-27T14:41:44.207Z,24.57
2022-08-27T14:44:17.022Z,24.70
2022-08-27T14:46:49.587Z,24.76
2022-08-27T14:49:27.445Z,24.81
2022-08-27T14:51:59.739Z,24.90
2022-08-27T14:54:33.335Z,24.83
2022-08-27T14:57:07.365Z,24.74
2022-08-27T14:59:40.748Z,24.75
2022-08-27T15:02:15.090Z,24.95
2022-08-27T15:04:48.046Z,24.96
2022-08-27T15:07:23.508Z,25.11
2022-08-27T15:09:56.098Z,24.92
2022-08-27T15:12:28.562Z,24.94
2022-08-27T15:15:00.815Z,25.04
2022-08-27T15:17:34.393Z,25.19
2022-08-27T15:20:11.834Z,24.89
2022-08-27T15:22:53.992Z,25.14
2022-08-27T15:25:26.798Z,25.03
2022-08-27T15:27:59.083Z,25.47
2022-08-27T15:30:31.914Z,26.18
2022-08-27T15:33:05.319Z,26.19
2022-08-27T15:35:37.751Z,26.50
2022-08-27T15:38:11.006Z,26.56
2022-08-27T15:40:43.775Z,26.67
2022-08-27T15:43:18.184Z,26.93
2022-08-27T15:45:50.340Z,27.29
2022-08-27T15:48:22.566Z,27.28
2022-08-27T15:50:55.608Z,27.30
2022-08-27T15:53:27.900Z,27.08
2022-08-27T15:56:00.090Z,27.04
2022-08-27T15:58:32.547Z,27.33
2022-08-27T16:01:10.664Z,27.25
2022-08-27T16:03:45.173Z,27.44
2022-08-27T16:06:19.613Z,28.03
2022-08-27T16:08:52.176Z,27.95
2022-08-27T16:11:24.871Z,28.10
2022-08-27T16:13:57.166Z,27.88
2022-08-27T16:16:33.404Z,28.04
2022-08-27T16:19:08.931Z,28.15
2022-08-27T16:21:41.423Z,28.21
2022-08-27T16:24:14.082Z,28.30
2022-08-27T16:26:46.591Z,28.00
2022-08-27T16:29:19.180Z,28.32
2022-08-27T16:31:51.439Z,28.58
2022-08-27T16:34:27.168Z,28.41
2022-08-27T16:37:00.278Z,28.34
2022-08-27T16:39:35.417Z,28.54
2022-08-27T16:42:10.947Z,29.12
2022-08-27T16:44:43.072Z,29.39
2022-08-27T16:47:15.260Z,29.62
2022-08-27T16:50:05.046Z,30.14
2022-08-27T16:52:37.379Z,30.08
2022-08-27T16:55:11.930Z,30.40
2022-08-27T16:57:44.079Z,30.41
2022-08-27T17:00:16.717Z,30.60
2022-08-27T17:02:49.015Z,30.78
2022-08-27T17:05:33.980Z,31.08
2022-08-27T17:08:11.703Z,31.18
2022-08-27T17:10:48.716Z,31.39
2022-08-27T17:13:28.281Z,31.62
2022-08-27T17:16:02.575Z,31.58
2022-08-27T17:18:35.375Z,32.16
2022-08-27T17:21:08.058Z,32.22
2022-08-27T17:23:43.273Z,32.26
2022-08-27T17:26:17.316Z,32.41
2022-08-27T17:28:49.581Z,32.75
2022-08-27T17:31:28.059Z,32.74
2022-08-27T17:34:02.527Z,33.27
2022-08-27T17:36:35.193Z,33.27
2022-08-27T17:39:07.995Z,33.18
2022-08-27T17:41:43.424Z,33.46
2022-08-27T17:44:25.982Z,33.55
2022-08-27T17:47:00.451Z,33.86
2022-08-27T17:49:33.006Z,33.82
2022-08-27T17:52:09.759Z,34.11
2022-08-27T17:54:44.838Z,34.22
2022-08-27T17:57:20.052Z,34.38
2022-08-27T17:59:53.583Z,34.43
2022-08-27T18:02:31.715Z,34.71
2022-08-27T18:05:04.804Z,34.76
2022-08-27T18:07:39.982Z,35.08
2022-08-27T18:10:14.847Z,35.05
2022-08-27T18:12:47.726Z,35.32
2022-08-27T18:15:23.042Z,35.21
2022-08-27T18:17:55.790Z,35.23
2022-08-27T18:20:30.351Z,35.28
2022-08-27T18:23:02.867Z,35.26
2022-08-27T18:25:36.850Z,35.54
2022-08-27T18:28:11.464Z,35.46
2022-08-27T18:30:46.308Z,35.77
2022-08-27T18:33:18.759Z,35.84
2022-08-27T18:35:51.974Z,35.98
2022-08-27T18:38:24.316Z,36.03
2022-08-27T18:40:57.749Z,36.11
2022-08-27T18:43:35.069Z,36.27
2022-08-27T18:46:07.880Z,36.35
2022-08-27T18:48:40.304Z,36.48
2022-08-27T18:51:15.914Z,36.65
2022-08-27T18:53:49.293Z,36.72
2022-08-27T18:56:22.696Z,36.86
2022-08-27T18:58:54.834Z,36.89
2022-08-27T19:01:29.132Z,37.01
2022-08-27T19:04:01.489Z,37.15
2022-08-27T19:06:34.262Z,37.27
2022-08-27T19:09:07.510Z,37.26
2022-08-27T19:11:39.700Z,37.31
2022-08-27T19:14:11.837Z,37.38
2022-08-27T19:16:46.900Z,37.44
2022-08-27T19:19:18.971Z,37.54
2022-08-27T19:21:51.781Z,37.72
2022-08-27T19:24:24.678Z,37.80
2022-08-27T19:26:57.088Z,37.92
2022-08-27T19:29:29.293Z,37.99
2022-08-27T19:32:01.503Z,38.11
2022-08-27T19:34:33.756Z,38.33
2022-08-27T19:37:08.111Z,38.42
2022-08-27T19:39:40.959Z,38.66
2022-08-27T19:42:13.123Z,38.75
2022-08-27T19:44:45.770Z,39.13
2022-08-27T19:47:25.347Z,39.42
2022-08-27T19:49:58.210Z,39.60
2022-08-27T19:52:30.599Z,39.66
2022-08-27T19:55:13.746Z,39.82
2022-08-27T19:57:48.141Z,39.82
2022-08-27T20:00:24.715Z,40.14
2022-08-27T20:03:00.175Z,40.30
2022-08-27T20:05:32.557Z,40.31
2022-08-27T20:08:05.921Z,40.58
2022-08-27T20:10:39.029Z,40.78
2022-08-27T20:13:11.255Z,40.75
2022-08-27T20:15:43.674Z,40.96
2022-08-27T20:18:16.999Z,40.93
2022-08-27T20:20:49.263Z,41.19
2022-08-27T20:23:21.425Z,40.93
2022-08-27T20:26:00.477Z,41.17
2022-08-27T20:28:39.408Z,41.26
2022-08-27T20:31:12.764Z,41.31
2022-08-27T20:33:45.386Z,41.54
2022-08-27T20:36:17.639Z,41.67
2022-08-27T20:38:49.803Z,41.79
2022-08-27T20:41:22.446Z,41.72
2022-08-27T20:43:54.766Z,42.04
2022-08-27T20:46:30.674Z,42.04
2022-08-27T20:49:03.313Z,42.18
2022-08-27T20:51:51.311Z,42.09
2022-08-27T20:54:27.734Z,42.02
2022-08-27T20:57:00.207Z,42.03
2022-08-27T20:59:50.371Z,42.24
2022-08-27T21:02:26.627Z,42.17
2022-08-27T21:05:06.485Z,42.32
2022-08-27T21:07:38.736Z,42.50
2022-08-27T21:10:12.668Z,42.73
2022-08-27T21:12:45.494Z,42.67
2022-08-27T21:15:17.942Z,42.95
2022-08-27T21:17:50.077Z,42.89
2022-08-27T21:20:22.468Z,42.81
2022-08-27T21:22:56.203Z,42.80
2022-08-27T21:25:29.221Z,43.02
2022-08-27T21:28:03.687Z,43.17
2022-08-27T21:30:36.190Z,43.03
2022-08-27T21:33:08.475Z,43.23
2022-08-27T21:35:40.711Z,43.24
2022-08-27T21:38:13.348Z,43.23
2022-08-27T21:40:45.875Z,43.55
2022-08-27T21:43:18.021Z,43.33
2022-08-27T21:45:53.659Z,43.65
2022-08-27T21:48:26.844Z,43.64
2022-08-27T21:50:59.160Z,43.83
2022-08-27T21:53:32.127Z,43.66
2022-08-27T21:56:04.639Z,43.76
2022-08-27T21:58:37.147Z,43.96
2022-08-27T22:01:09.890Z,43.94
2022-08-27T22:03:46.910Z,43.87
2022-08-27T22:06:19.807Z,44.02
2022-08-27T22:08:52.036Z,44.23
2022-08-27T22:11:24.663Z,44.46
2022-08-27T22:13:59.599Z,44.61
2022-08-27T22:16:31.752Z,44.63
2022-08-27T22:19:03.940Z,44.83
2022-08-27T22:21:36.496Z,44.89
2022-08-27T22:24:09.760Z,44.80
2022-08-27T22:26:42.043Z,45.20
2022-08-27T22:29:16.352Z,45.24
2022-08-27T22:31:48.676Z,45.51
2022-08-27T22:34:21.943Z,45.46
2022-08-27T22:36:54.148Z,45.87
2022-08-27T22:39:26.811Z,46.01
2022-08-27T22:42:00.329Z,46.08
2022-08-27T22:44:32.678Z,46.34
2022-08-27T22:47:05.094Z,46.40
2022-08-27T22:49:37.615Z,46.27
2022-08-27T22:52:10.007Z,46.55
2022-08-27T22:54:42.256Z,46.69
2022-08-27T22:57:14.811Z,46.69
2022-08-27T22:59:47.121Z,46.85
2022-08-27T23:02:19.235Z,47.02
2022-08-27T23:04:55.542Z,47.03
2022-08-27T23:07:28.285Z,46.97
2022-08-27T23:10:01.111Z,47.32
2022-08-27T23:12:34.307Z,47.33
2022-08-27T23:15:12.409Z,47.46
2022-08-27T23:17:44.628Z,47.44
2022-08-27T23:20:17.731Z,47.36
2022-08-27T23:22:50.512Z,47.31
2022-08-27T23:25:43.393Z,47.32
2022-08-27T23:28:16.864Z,47.66
2022-08-27T23:30:49.527Z,47.40
2022-08-27T23:33:22.080Z,47.41
2022-08-27T23:35:54.250Z,47.51
2022-08-27T23:38:26.637Z,47.62
2022-08-27T23:40:58.991Z,47.65
2022-08-27T23:43:32.466Z,47.77
2022-08-27T23:46:05.012Z,47.79
2022-08-27T23:48:39.482Z,47.85
2022-08-27T23:51:12.215Z,47.92
2022-08-27T23:53:44.396Z,47.83
2022-08-27T23:56:16.546Z,47.83
2022-08-27T23:58:48.974Z,48.18
